sensor_id;sensor_type;location;lat;lon;timestamp;temperature;humidity
70826;SHT31;58446;41.490;22.098;2022-10-28T00:02:16;14.13;57.78
70826;SHT31;58446;41.490;22.098;2022-10-28T00:04:41;14.10;58.16
70826;SHT31;58446;41.490;22.098;2022-10-28T00:07:07;14.25;57.78
70826;SHT31;58446;41.490;22.098;2022-10-28T00:09:33;14.39;57.58
70826;SHT31;58446;41.490;22.098;2022-10-28T00:11:58;14.33;57.28
70826;SHT31;58446;41.490;22.098;2022-10-28T00:14:24;14.26;56.91
70826;SHT31;58446;41.490;22.098;2022-10-28T00:16:50;14.10;56.11
70826;SHT31;58446;41.490;22.098;2022-10-28T00:19:17;13.86;56.88
70826;SHT31;58446;41.490;22.098;2022-10-28T00:21:44;13.81;58.10
70826;SHT31;58446;41.490;22.098;2022-10-28T00:24:12;13.88;58.10
70826;SHT31;58446;41.490;22.098;2022-10-28T00:26:39;13.64;57.81
70826;SHT31;58446;41.490;22.098;2022-10-28T00:29:15;13.47;58.69
70826;SHT31;58446;41.490;22.098;2022-10-28T00:31:41;13.59;58.80
70826;SHT31;58446;41.490;22.098;2022-10-28T00:34:13;13.28;59.49
70826;SHT31;58446;41.490;22.098;2022-10-28T00:36:40;13.34;59.71
70826;SHT31;58446;41.490;22.098;2022-10-28T00:39:16;13.38;59.30
70826;SHT31;58446;41.490;22.098;2022-10-28T00:41:48;13.33;60.16
70826;SHT31;58446;41.490;22.098;2022-10-28T00:47:26;13.03;60.80
70826;SHT31;58446;41.490;22.098;2022-10-28T00:49:57;13.31;60.30
70826;SHT31;58446;41.490;22.098;2022-10-28T00:52:27;13.28;60.11
70826;SHT31;58446;41.490;22.098;2022-10-28T00:54:55;13.44;60.00
70826;SHT31;58446;41.490;22.098;2022-10-28T00:57:27;13.41;60.30
70826;SHT31;58446;41.490;22.098;2022-10-28T00:59:55;13.37;60.25
70826;SHT31;58446;41.490;22.098;2022-10-28T01:02:22;13.40;59.89
70826;SHT31;58446;41.490;22.098;2022-10-28T01:04:47;13.62;59.53
70826;SHT31;58446;41.490;22.098;2022-10-28T01:07:15;13.33;59.82
70826;SHT31;58446;41.490;22.098;2022-10-28T01:09:41;13.43;60.04
70826;SHT31;58446;41.490;22.098;2022-10-28T01:15:41;13.57;59.62
70826;SHT31;58446;41.490;22.098;2022-10-28T01:20:38;13.47;59.58
70826;SHT31;58446;41.490;22.098;2022-10-28T01:23:52;13.48;58.93
70826;SHT31;58446;41.490;22.098;2022-10-28T01:26:49;13.72;58.88
70826;SHT31;58446;41.490;22.098;2022-10-28T01:29:44;13.75;58.91
70826;SHT31;58446;41.490;22.098;2022-10-28T01:32:25;13.72;58.04
70826;SHT31;58446;41.490;22.098;2022-10-28T01:35:08;13.69;58.77
70826;SHT31;58446;41.490;22.098;2022-10-28T01:38:00;13.57;58.95
70826;SHT31;58446;41.490;22.098;2022-10-28T01:49:13;13.28;59.65
70826;SHT31;58446;41.490;22.098;2022-10-28T01:51:44;13.33;59.72
70826;SHT31;58446;41.490;22.098;2022-10-28T01:54:15;13.33;59.47
70826;SHT31;58446;41.490;22.098;2022-10-28T01:56:42;13.51;58.64
70826;SHT31;58446;41.490;22.098;2022-10-28T01:59:13;13.54;59.01
70826;SHT31;58446;41.490;22.098;2022-10-28T02:01:40;13.53;58.82
70826;SHT31;58446;41.490;22.098;2022-10-28T02:04:06;13.51;58.85
70826;SHT31;58446;41.490;22.098;2022-10-28T02:06:32;13.31;58.89
70826;SHT31;58446;41.490;22.098;2022-10-28T02:14:50;12.95;59.06
70826;SHT31;58446;41.490;22.098;2022-10-28T02:20:21;12.99;59.94
70826;SHT31;58446;41.490;22.098;2022-10-28T02:22:53;13.04;59.79
70826;SHT31;58446;41.490;22.098;2022-10-28T02:25:28;12.90;59.43
70826;SHT31;58446;41.490;22.098;2022-10-28T02:28:03;12.28;60.50
70826;SHT31;58446;41.490;22.098;2022-10-28T02:33:13;12.79;60.34
70826;SHT31;58446;41.490;22.098;2022-10-28T02:38:17;12.46;60.48
70826;SHT31;58446;41.490;22.098;2022-10-28T02:40:49;12.70;60.91
70826;SHT31;58446;41.490;22.098;2022-10-28T02:43:16;12.90;60.38
70826;SHT31;58446;41.490;22.098;2022-10-28T02:45:46;12.87;60.24
70826;SHT31;58446;41.490;22.098;2022-10-28T02:48:37;12.73;60.52
70826;SHT31;58446;41.490;22.098;2022-10-28T02:51:11;12.83;60.56
70826;SHT31;58446;41.490;22.098;2022-10-28T02:56:26;13.03;59.95
70826;SHT31;58446;41.490;22.098;2022-10-28T02:58:53;12.99;60.13
70826;SHT31;58446;41.490;22.098;2022-10-28T03:01:18;12.99;59.97
70826;SHT31;58446;41.490;22.098;2022-10-28T03:03:44;12.90;60.06
70826;SHT31;58446;41.490;22.098;2022-10-28T03:06:10;12.95;59.76
70826;SHT31;58446;41.490;22.098;2022-10-28T03:08:35;13.00;59.91
70826;SHT31;58446;41.490;22.098;2022-10-28T03:11:01;12.99;59.69
70826;SHT31;58446;41.490;22.098;2022-10-28T03:13:27;12.96;59.70
70826;SHT31;58446;41.490;22.098;2022-10-28T03:15:52;12.77;60.48
70826;SHT31;58446;41.490;22.098;2022-10-28T03:18:18;12.87;60.08
70826;SHT31;58446;41.490;22.098;2022-10-28T03:20:43;12.87;60.15
70826;SHT31;58446;41.490;22.098;2022-10-28T03:23:09;12.72;60.45
70826;SHT31;58446;41.490;22.098;2022-10-28T03:25:35;12.87;60.46
70826;SHT31;58446;41.490;22.098;2022-10-28T03:28:00;12.95;60.26
70826;SHT31;58446;41.490;22.098;2022-10-28T03:30:26;12.93;60.22
70826;SHT31;58446;41.490;22.098;2022-10-28T03:32:52;13.00;60.32
70826;SHT31;58446;41.490;22.098;2022-10-28T03:35:17;13.03;60.05
70826;SHT31;58446;41.490;22.098;2022-10-28T03:37:43;12.82;60.38
70826;SHT31;58446;41.490;22.098;2022-10-28T03:40:10;12.85;60.32
70826;SHT31;58446;41.490;22.098;2022-10-28T03:42:36;12.80;60.59
70826;SHT31;58446;41.490;22.098;2022-10-28T03:45:02;12.76;60.57
70826;SHT31;58446;41.490;22.098;2022-10-28T03:47:27;12.65;60.39
70826;SHT31;58446;41.490;22.098;2022-10-28T03:49:53;12.60;60.59
70826;SHT31;58446;41.490;22.098;2022-10-28T03:52:19;12.48;61.13
70826;SHT31;58446;41.490;22.098;2022-10-28T03:54:44;12.39;61.47
70826;SHT31;58446;41.490;22.098;2022-10-28T03:57:10;12.52;61.52
70826;SHT31;58446;41.490;22.098;2022-10-28T03:59:35;12.53;61.57
70826;SHT31;58446;41.490;22.098;2022-10-28T04:02:01;12.63;61.57
70826;SHT31;58446;41.490;22.098;2022-10-28T04:04:27;12.63;61.57
70826;SHT31;58446;41.490;22.098;2022-10-28T04:06:52;12.75;61.19
70826;SHT31;58446;41.490;22.098;2022-10-28T04:09:18;12.62;61.74
70826;SHT31;58446;41.490;22.098;2022-10-28T04:11:47;12.62;61.61
70826;SHT31;58446;41.490;22.098;2022-10-28T04:14:13;12.73;61.46
70826;SHT31;58446;41.490;22.098;2022-10-28T04:16:39;12.73;61.44
70826;SHT31;58446;41.490;22.098;2022-10-28T04:19:04;12.73;61.48
70826;SHT31;58446;41.490;22.098;2022-10-28T04:21:30;12.72;61.46
70826;SHT31;58446;41.490;22.098;2022-10-28T04:23:56;12.77;61.46
70826;SHT31;58446;41.490;22.098;2022-10-28T04:26:21;12.85;61.26
70826;SHT31;58446;41.490;22.098;2022-10-28T04:28:47;12.72;61.14
70826;SHT31;58446;41.490;22.098;2022-10-28T04:31:13;12.73;61.60
70826;SHT31;58446;41.490;22.098;2022-10-28T04:33:38;12.75;61.67
70826;SHT31;58446;41.490;22.098;2022-10-28T04:36:04;12.69;61.92
70826;SHT31;58446;41.490;22.098;2022-10-28T04:38:30;12.80;61.46
70826;SHT31;58446;41.490;22.098;2022-10-28T04:40:56;12.55;62.02
70826;SHT31;58446;41.490;22.098;2022-10-28T04:43:21;12.36;62.68
70826;SHT31;58446;41.490;22.098;2022-10-28T04:45:47;12.20;63.33
70826;SHT31;58446;41.490;22.098;2022-10-28T04:48:13;12.41;62.92
70826;SHT31;58446;41.490;22.098;2022-10-28T04:50:38;12.49;62.89
70826;SHT31;58446;41.490;22.098;2022-10-28T04:53:04;12.58;62.52
70826;SHT31;58446;41.490;22.098;2022-10-28T04:55:30;12.56;62.44
70826;SHT31;58446;41.490;22.098;2022-10-28T04:57:56;12.59;62.38
70826;SHT31;58446;41.490;22.098;2022-10-28T05:00:24;12.41;62.63
70826;SHT31;58446;41.490;22.098;2022-10-28T05:02:50;12.32;63.09
70826;SHT31;58446;41.490;22.098;2022-10-28T05:05:16;12.55;62.49
70826;SHT31;58446;41.490;22.098;2022-10-28T05:07:43;12.29;63.35
70826;SHT31;58446;41.490;22.098;2022-10-28T05:10:09;12.42;62.97
70826;SHT31;58446;41.490;22.098;2022-10-28T05:12:36;12.55;62.67
70826;SHT31;58446;41.490;22.098;2022-10-28T05:15:02;12.55;62.62
70826;SHT31;58446;41.490;22.098;2022-10-28T05:17:28;12.59;62.45
70826;SHT31;58446;41.490;22.098;2022-10-28T05:19:54;12.68;62.16
70826;SHT31;58446;41.490;22.098;2022-10-28T05:22:19;12.83;61.83
70826;SHT31;58446;41.490;22.098;2022-10-28T05:24:45;12.83;61.58
70826;SHT31;58446;41.490;22.098;2022-10-28T05:27:10;12.93;61.50
70826;SHT31;58446;41.490;22.098;2022-10-28T05:29:37;12.92;61.38
70826;SHT31;58446;41.490;22.098;2022-10-28T05:32:02;12.86;61.26
70826;SHT31;58446;41.490;22.098;2022-10-28T05:34:28;12.95;61.41
70826;SHT31;58446;41.490;22.098;2022-10-28T05:36:54;13.18;60.76
70826;SHT31;58446;41.490;22.098;2022-10-28T05:39:19;13.69;59.40
70826;SHT31;58446;41.490;22.098;2022-10-28T05:41:45;14.63;56.52
70826;SHT31;58446;41.490;22.098;2022-10-28T05:44:11;15.28;54.55
70826;SHT31;58446;41.490;22.098;2022-10-28T05:46:36;15.91;52.72
70826;SHT31;58446;41.490;22.098;2022-10-28T05:49:02;16.40;51.33
70826;SHT31;58446;41.490;22.098;2022-10-28T05:51:28;16.67;51.47
70826;SHT31;58446;41.490;22.098;2022-10-28T05:53:54;16.82;50.95
70826;SHT31;58446;41.490;22.098;2022-10-28T05:56:19;16.92;51.19
70826;SHT31;58446;41.490;22.098;2022-10-28T05:58:45;17.05;50.23
70826;SHT31;58446;41.490;22.098;2022-10-28T06:01:11;16.86;50.24
70826;SHT31;58446;41.490;22.098;2022-10-28T06:03:37;17.05;50.34
70826;SHT31;58446;41.490;22.098;2022-10-28T06:06:03;17.26;49.94
70826;SHT31;58446;41.490;22.098;2022-10-28T06:08:28;17.48;49.49
70826;SHT31;58446;41.490;22.098;2022-10-28T06:10:55;17.87;48.36
70826;SHT31;58446;41.490;22.098;2022-10-28T06:13:21;18.02;48.03
70826;SHT31;58446;41.490;22.098;2022-10-28T06:15:51;17.85;48.55
70826;SHT31;58446;41.490;22.098;2022-10-28T06:18:17;18.49;47.07
70826;SHT31;58446;41.490;22.098;2022-10-28T06:20:43;18.30;47.14
70826;SHT31;58446;41.490;22.098;2022-10-28T06:23:09;18.46;46.62
70826;SHT31;58446;41.490;22.098;2022-10-28T06:25:34;18.30;47.09
70826;SHT31;58446;41.490;22.098;2022-10-28T06:28:00;18.08;47.81
70826;SHT31;58446;41.490;22.098;2022-10-28T06:30:27;18.40;47.19
70826;SHT31;58446;41.490;22.098;2022-10-28T06:32:56;17.79;48.55
70826;SHT31;58446;41.490;22.098;2022-10-28T06:35:22;17.58;49.54
70826;SHT31;58446;41.490;22.098;2022-10-28T06:37:55;17.66;49.10
70826;SHT31;58446;41.490;22.098;2022-10-28T06:40:22;17.60;49.58
70826;SHT31;58446;41.490;22.098;2022-10-28T06:42:47;17.67;49.96
70826;SHT31;58446;41.490;22.098;2022-10-28T06:45:13;17.47;50.00
70826;SHT31;58446;41.490;22.098;2022-10-28T06:47:39;17.46;50.18
70826;SHT31;58446;41.490;22.098;2022-10-28T06:50:05;17.17;50.48
70826;SHT31;58446;41.490;22.098;2022-10-28T06:52:31;17.16;51.04
70826;SHT31;58446;41.490;22.098;2022-10-28T06:54:56;17.40;50.05
70826;SHT31;58446;41.490;22.098;2022-10-28T06:57:22;17.60;49.00
70826;SHT31;58446;41.490;22.098;2022-10-28T06:59:48;17.38;49.73
70826;SHT31;58446;41.490;22.098;2022-10-28T07:02:14;17.75;48.85
70826;SHT31;58446;41.490;22.098;2022-10-28T07:04:40;17.81;48.10
70826;SHT31;58446;41.490;22.098;2022-10-28T07:07:06;17.91;48.34
70826;SHT31;58446;41.490;22.098;2022-10-28T07:09:32;17.99;48.22
70826;SHT31;58446;41.490;22.098;2022-10-28T07:11:58;18.24;46.91
70826;SHT31;58446;41.490;22.098;2022-10-28T07:14:23;18.33;48.15
70826;SHT31;58446;41.490;22.098;2022-10-28T07:16:49;18.32;48.31
70826;SHT31;58446;41.490;22.098;2022-10-28T07:19:15;18.49;48.01
70826;SHT31;58446;41.490;22.098;2022-10-28T07:21:40;18.50;48.24
70826;SHT31;58446;41.490;22.098;2022-10-28T07:24:06;18.71;47.80
70826;SHT31;58446;41.490;22.098;2022-10-28T07:26:32;18.93;47.47
70826;SHT31;58446;41.490;22.098;2022-10-28T07:28:57;19.01;47.06
70826;SHT31;58446;41.490;22.098;2022-10-28T07:31:23;19.35;46.62
70826;SHT31;58446;41.490;22.098;2022-10-28T07:33:53;19.48;45.97
70826;SHT31;58446;41.490;22.098;2022-10-28T07:36:18;19.70;44.44
70826;SHT31;58446;41.490;22.098;2022-10-28T07:38:48;19.62;44.58
70826;SHT31;58446;41.490;22.098;2022-10-28T07:41:16;19.66;45.38
70826;SHT31;58446;41.490;22.098;2022-10-28T07:43:41;19.80;44.92
70826;SHT31;58446;41.490;22.098;2022-10-28T07:46:07;19.94;44.33
70826;SHT31;58446;41.490;22.098;2022-10-28T07:48:36;19.80;43.87
70826;SHT31;58446;41.490;22.098;2022-10-28T07:51:04;19.97;43.86
70826;SHT31;58446;41.490;22.098;2022-10-28T07:53:30;20.09;43.75
70826;SHT31;58446;41.490;22.098;2022-10-28T07:55:57;20.12;43.83
70826;SHT31;58446;41.490;22.098;2022-10-28T07:58:23;20.38;43.73
70826;SHT31;58446;41.490;22.098;2022-10-28T08:00:49;20.51;44.43
70826;SHT31;58446;41.490;22.098;2022-10-28T08:03:15;20.58;44.02
70826;SHT31;58446;41.490;22.098;2022-10-28T08:05:41;20.65;43.66
70826;SHT31;58446;41.490;22.098;2022-10-28T08:08:06;20.85;44.14
70826;SHT31;58446;41.490;22.098;2022-10-28T08:10:32;20.84;43.89
70826;SHT31;58446;41.490;22.098;2022-10-28T08:12:57;20.94;43.10
70826;SHT31;58446;41.490;22.098;2022-10-28T08:15:25;20.74;42.98
70826;SHT31;58446;41.490;22.098;2022-10-28T08:17:51;20.94;43.12
70826;SHT31;58446;41.490;22.098;2022-10-28T08:20:17;21.16;43.10
70826;SHT31;58446;41.490;22.098;2022-10-28T08:22:43;21.15;43.60
70826;SHT31;58446;41.490;22.098;2022-10-28T08:25:08;21.51;41.70
70826;SHT31;58446;41.490;22.098;2022-10-28T08:27:34;21.60;42.37
70826;SHT31;58446;41.490;22.098;2022-10-28T08:30:00;21.64;41.92
70826;SHT31;58446;41.490;22.098;2022-10-28T08:32:25;21.71;40.93
70826;SHT31;58446;41.490;22.098;2022-10-28T08:34:52;21.70;41.37
70826;SHT31;58446;41.490;22.098;2022-10-28T08:37:18;21.61;43.33
70826;SHT31;58446;41.490;22.098;2022-10-28T08:39:43;21.61;42.82
70826;SHT31;58446;41.490;22.098;2022-10-28T08:42:21;21.60;42.04
70826;SHT31;58446;41.490;22.098;2022-10-28T08:45:24;21.81;41.80
70826;SHT31;58446;41.490;22.098;2022-10-28T08:50:23;21.96;41.53
70826;SHT31;58446;41.490;22.098;2022-10-28T08:56:25;21.97;42.10
70826;SHT31;58446;41.490;22.098;2022-10-28T08:58:52;21.97;40.55
70826;SHT31;58446;41.490;22.098;2022-10-28T09:04:21;21.98;41.20
70826;SHT31;58446;41.490;22.098;2022-10-28T09:06:48;21.88;40.38
70826;SHT31;58446;41.490;22.098;2022-10-28T09:09:18;21.98;41.20
70826;SHT31;58446;41.490;22.098;2022-10-28T09:14:38;22.14;40.70
70826;SHT31;58446;41.490;22.098;2022-10-28T09:17:19;21.81;41.99
70826;SHT31;58446;41.490;22.098;2022-10-28T09:24:51;22.12;40.95
70826;SHT31;58446;41.490;22.098;2022-10-28T09:27:29;22.38;41.00
70826;SHT31;58446;41.490;22.098;2022-10-28T09:33:12;22.48;41.00
70826;SHT31;58446;41.490;22.098;2022-10-28T09:35:42;22.58;39.01
70826;SHT31;58446;41.490;22.098;2022-10-28T09:40:50;22.52;39.70
70826;SHT31;58446;41.490;22.098;2022-10-28T09:43:29;22.59;40.70
70826;SHT31;58446;41.490;22.098;2022-10-28T09:46:11;22.63;40.46
70826;SHT31;58446;41.490;22.098;2022-10-28T09:48:40;22.21;41.72
70826;SHT31;58446;41.490;22.098;2022-10-28T09:51:38;22.47;39.63
70826;SHT31;58446;41.490;22.098;2022-10-28T09:54:08;22.68;41.15
70826;SHT31;58446;41.490;22.098;2022-10-28T09:56:35;22.77;40.65
70826;SHT31;58446;41.490;22.098;2022-10-28T09:59:02;22.39;41.73
70826;SHT31;58446;41.490;22.098;2022-10-28T10:01:35;22.56;41.37
70826;SHT31;58446;41.490;22.098;2022-10-28T10:04:11;22.58;41.04
70826;SHT31;58446;41.490;22.098;2022-10-28T10:06:41;22.45;40.74
70826;SHT31;58446;41.490;22.098;2022-10-28T10:09:15;22.45;40.03
70826;SHT31;58446;41.490;22.098;2022-10-28T10:11:45;22.09;40.82
70826;SHT31;58446;41.490;22.098;2022-10-28T10:14:14;22.17;41.14
70826;SHT31;58446;41.490;22.098;2022-10-28T10:17:04;22.29;39.96
70826;SHT31;58446;41.490;22.098;2022-10-28T10:19:59;22.27;41.12
70826;SHT31;58446;41.490;22.098;2022-10-28T10:22:51;22.34;41.28
70826;SHT31;58446;41.490;22.098;2022-10-28T10:30:37;22.68;38.60
70826;SHT31;58446;41.490;22.098;2022-10-28T10:33:05;22.62;41.34
70826;SHT31;58446;41.490;22.098;2022-10-28T10:35:33;22.34;40.08
70826;SHT31;58446;41.490;22.098;2022-10-28T10:38:01;22.27;40.42
70826;SHT31;58446;41.490;22.098;2022-10-28T10:40:33;21.91;41.46
70826;SHT31;58446;41.490;22.098;2022-10-28T10:48:27;22.62;40.74
70826;SHT31;58446;41.490;22.098;2022-10-28T10:50:54;22.63;40.33
70826;SHT31;58446;41.490;22.098;2022-10-28T10:55:52;22.11;41.09
70826;SHT31;58446;41.490;22.098;2022-10-28T10:58:20;22.22;40.87
70826;SHT31;58446;41.490;22.098;2022-10-28T11:00:50;22.48;41.20
70826;SHT31;58446;41.490;22.098;2022-10-28T11:05:53;22.88;40.02
70826;SHT31;58446;41.490;22.098;2022-10-28T11:08:37;23.10;40.80
70826;SHT31;58446;41.490;22.098;2022-10-28T11:13:35;23.13;39.23
70826;SHT31;58446;41.490;22.098;2022-10-28T11:16:04;23.17;40.21
70826;SHT31;58446;41.490;22.098;2022-10-28T11:18:39;23.02;39.05
70826;SHT31;58446;41.490;22.098;2022-10-28T11:23:56;23.26;37.92
70826;SHT31;58446;41.490;22.098;2022-10-28T11:26:26;23.27;37.88
70826;SHT31;58446;41.490;22.098;2022-10-28T11:29:08;23.28;37.40
70826;SHT31;58446;41.490;22.098;2022-10-28T11:34:32;23.47;38.97
70826;SHT31;58446;41.490;22.098;2022-10-28T11:40:20;23.78;36.96
70826;SHT31;58446;41.490;22.098;2022-10-28T11:51:41;22.88;39.21
70826;SHT31;58446;41.490;22.098;2022-10-28T11:54:18;22.99;39.75
70826;SHT31;58446;41.490;22.098;2022-10-28T11:56:47;22.79;39.70
70826;SHT31;58446;41.490;22.098;2022-10-28T12:05:52;23.10;38.87
70826;SHT31;58446;41.490;22.098;2022-10-28T12:11:32;23.43;38.58
70826;SHT31;58446;41.490;22.098;2022-10-28T12:14:13;23.43;39.14
70826;SHT31;58446;41.490;22.098;2022-10-28T12:16:48;23.48;37.75
70826;SHT31;58446;41.490;22.098;2022-10-28T12:19:21;23.55;37.69
70826;SHT31;58446;41.490;22.098;2022-10-28T12:24:27;23.69;38.66
70826;SHT31;58446;41.490;22.098;2022-10-28T12:26:56;23.68;38.06
70826;SHT31;58446;41.490;22.098;2022-10-28T12:31:57;23.67;38.38
70826;SHT31;58446;41.490;22.098;2022-10-28T12:34:33;23.46;38.34
70826;SHT31;58446;41.490;22.098;2022-10-28T12:37:22;23.36;39.66
70826;SHT31;58446;41.490;22.098;2022-10-28T12:42:29;23.58;38.82
70826;SHT31;58446;41.490;22.098;2022-10-28T12:44:57;23.64;38.69
70826;SHT31;58446;41.490;22.098;2022-10-28T12:47:34;23.71;38.15
70826;SHT31;58446;41.490;22.098;2022-10-28T12:55:34;23.86;36.90
70826;SHT31;58446;41.490;22.098;2022-10-28T13:00:54;23.54;38.50
70826;SHT31;58446;41.490;22.098;2022-10-28T13:03:21;23.54;38.27
70826;SHT31;58446;41.490;22.098;2022-10-28T13:20:25;23.21;38.81
70826;SHT31;58446;41.490;22.098;2022-10-28T13:25:48;23.10;39.49
70826;SHT31;58446;41.490;22.098;2022-10-28T13:28:19;23.23;39.83
70826;SHT31;58446;41.490;22.098;2022-10-28T13:31:01;23.36;39.24
70826;SHT31;58446;41.490;22.098;2022-10-28T13:33:28;23.40;39.48
70826;SHT31;58446;41.490;22.098;2022-10-28T13:36:08;23.40;39.12
70826;SHT31;58446;41.490;22.098;2022-10-28T13:38:35;23.48;38.95
70826;SHT31;58446;41.490;22.098;2022-10-28T13:49:36;23.47;38.60
70826;SHT31;58446;41.490;22.098;2022-10-28T13:57:32;23.47;38.95
70826;SHT31;58446;41.490;22.098;2022-10-28T14:03:02;23.23;39.01
70826;SHT31;58446;41.490;22.098;2022-10-28T14:08:20;23.10;39.32
70826;SHT31;58446;41.490;22.098;2022-10-28T14:11:03;23.14;39.47
70826;SHT31;58446;41.490;22.098;2022-10-28T14:13:34;23.03;39.40
70826;SHT31;58446;41.490;22.098;2022-10-28T14:22:05;22.95;39.48
70826;SHT31;58446;41.490;22.098;2022-10-28T14:29:28;22.96;39.98
70826;SHT31;58446;41.490;22.098;2022-10-28T14:31:54;22.90;40.09
70826;SHT31;58446;41.490;22.098;2022-10-28T14:37:08;22.86;40.54
70826;SHT31;58446;41.490;22.098;2022-10-28T14:42:51;22.80;40.51
70826;SHT31;58446;41.490;22.098;2022-10-28T14:45:22;22.80;40.53
70826;SHT31;58446;41.490;22.098;2022-10-28T14:48:48;22.77;40.29
70826;SHT31;58446;41.490;22.098;2022-10-28T14:50:54;22.66;40.12
70826;SHT31;58446;41.490;22.098;2022-10-28T14:53:27;22.52;40.25
70826;SHT31;58446;41.490;22.098;2022-10-28T14:56:03;22.59;40.51
70826;SHT31;58446;41.490;22.098;2022-10-28T14:58:35;22.63;40.60
70826;SHT31;58446;41.490;22.098;2022-10-28T15:03:45;22.38;41.04
70826;SHT31;58446;41.490;22.098;2022-10-28T15:06:41;22.29;41.28
70826;SHT31;58446;41.490;22.098;2022-10-28T15:09:20;22.27;41.21
70826;SHT31;58446;41.490;22.098;2022-10-28T15:11:50;22.21;41.47
70826;SHT31;58446;41.490;22.098;2022-10-28T15:14:33;22.17;41.74
70826;SHT31;58446;41.490;22.098;2022-10-28T15:17:11;22.11;42.34
70826;SHT31;58446;41.490;22.098;2022-10-28T15:19:36;22.07;42.44
70826;SHT31;58446;41.490;22.098;2022-10-28T15:24:32;21.83;43.91
70826;SHT31;58446;41.490;22.098;2022-10-28T15:26:58;21.73;44.35
70826;SHT31;58446;41.490;22.098;2022-10-28T15:29:24;21.63;44.43
70826;SHT31;58446;41.490;22.098;2022-10-28T15:34:47;21.45;45.20
70826;SHT31;58446;41.490;22.098;2022-10-28T15:37:27;21.26;46.28
70826;SHT31;58446;41.490;22.098;2022-10-28T15:40:19;21.13;47.20
70826;SHT31;58446;41.490;22.098;2022-10-28T15:42:59;20.99;47.64
70826;SHT31;58446;41.490;22.098;2022-10-28T15:45:29;20.78;48.39
70826;SHT31;58446;41.490;22.098;2022-10-28T15:47:57;20.74;49.16
70826;SHT31;58446;41.490;22.098;2022-10-28T15:50:31;20.63;49.48
70826;SHT31;58446;41.490;22.098;2022-10-28T15:55:40;20.48;49.47
70826;SHT31;58446;41.490;22.098;2022-10-28T16:00:49;20.38;50.06
70826;SHT31;58446;41.490;22.098;2022-10-28T16:03:47;20.47;49.47
70826;SHT31;58446;41.490;22.098;2022-10-28T16:08:58;20.26;49.21
70826;SHT31;58446;41.490;22.098;2022-10-28T16:11:25;20.26;48.94
70826;SHT31;58446;41.490;22.098;2022-10-28T16:13:50;20.05;49.33
70826;SHT31;58446;41.490;22.098;2022-10-28T16:16:27;20.01;49.82
70826;SHT31;58446;41.490;22.098;2022-10-28T16:19:24;19.70;51.19
70826;SHT31;58446;41.490;22.098;2022-10-28T16:21:51;19.68;50.90
70826;SHT31;58446;41.490;22.098;2022-10-28T16:24:17;19.52;51.63
70826;SHT31;58446;41.490;22.098;2022-10-28T16:26:43;19.52;51.73
70826;SHT31;58446;41.490;22.098;2022-10-28T16:29:10;19.66;50.12
70826;SHT31;58446;41.490;22.098;2022-10-28T16:31:35;19.49;50.87
70826;SHT31;58446;41.490;22.098;2022-10-28T16:34:01;19.25;50.30
70826;SHT31;58446;41.490;22.098;2022-10-28T16:36:27;18.93;50.60
70826;SHT31;58446;41.490;22.098;2022-10-28T16:38:53;19.00;50.11
70826;SHT31;58446;41.490;22.098;2022-10-28T16:41:19;18.91;50.61
70826;SHT31;58446;41.490;22.098;2022-10-28T16:43:45;18.71;51.38
70826;SHT31;58446;41.490;22.098;2022-10-28T16:46:12;18.57;52.18
70826;SHT31;58446;41.490;22.098;2022-10-28T16:48:38;18.38;53.43
70826;SHT31;58446;41.490;22.098;2022-10-28T16:51:24;18.29;53.72
70826;SHT31;58446;41.490;22.098;2022-10-28T16:53:49;18.22;54.07
70826;SHT31;58446;41.490;22.098;2022-10-28T16:56:15;18.29;53.32
70826;SHT31;58446;41.490;22.098;2022-10-28T16:58:41;18.49;52.04
70826;SHT31;58446;41.490;22.098;2022-10-28T17:01:10;18.53;52.41
70826;SHT31;58446;41.490;22.098;2022-10-28T17:03:36;18.40;52.14
70826;SHT31;58446;41.490;22.098;2022-10-28T17:06:02;18.32;52.42
70826;SHT31;58446;41.490;22.098;2022-10-28T17:08:27;18.25;52.46
70826;SHT31;58446;41.490;22.098;2022-10-28T17:10:53;18.16;52.51
70826;SHT31;58446;41.490;22.098;2022-10-28T17:13:19;18.22;52.54
70826;SHT31;58446;41.490;22.098;2022-10-28T17:15:51;18.15;52.20
70826;SHT31;58446;41.490;22.098;2022-10-28T17:18:18;18.24;51.36
70826;SHT31;58446;41.490;22.098;2022-10-28T17:20:45;18.08;51.69
70826;SHT31;58446;41.490;22.098;2022-10-28T17:23:11;17.82;52.55
70826;SHT31;58446;41.490;22.098;2022-10-28T17:25:37;17.88;53.16
70826;SHT31;58446;41.490;22.098;2022-10-28T17:28:02;17.70;53.46
70826;SHT31;58446;41.490;22.098;2022-10-28T17:30:29;17.38;53.89
70826;SHT31;58446;41.490;22.098;2022-10-28T17:32:54;17.15;54.75
70826;SHT31;58446;41.490;22.098;2022-10-28T17:35:21;17.29;55.38
70826;SHT31;58446;41.490;22.098;2022-10-28T17:37:47;17.30;55.39
70826;SHT31;58446;41.490;22.098;2022-10-28T17:40:13;17.16;56.06
70826;SHT31;58446;41.490;22.098;2022-10-28T17:42:39;17.20;56.30
70826;SHT31;58446;41.490;22.098;2022-10-28T17:45:06;17.02;56.92
70826;SHT31;58446;41.490;22.098;2022-10-28T17:47:33;16.82;57.03
70826;SHT31;58446;41.490;22.098;2022-10-28T17:49:59;16.95;57.46
70826;SHT31;58446;41.490;22.098;2022-10-28T17:52:25;17.17;56.72
70826;SHT31;58446;41.490;22.098;2022-10-28T17:54:52;17.24;55.95
70826;SHT31;58446;41.490;22.098;2022-10-28T17:57:18;17.36;55.93
70826;SHT31;58446;41.490;22.098;2022-10-28T17:59:44;17.36;55.79
70826;SHT31;58446;41.490;22.098;2022-10-28T18:02:10;17.24;55.69
70826;SHT31;58446;41.490;22.098;2022-10-28T18:04:40;17.22;55.62
70826;SHT31;58446;41.490;22.098;2022-10-28T18:07:06;17.37;55.22
70826;SHT31;58446;41.490;22.098;2022-10-28T18:09:31;17.46;54.54
70826;SHT31;58446;41.490;22.098;2022-10-28T18:12:00;17.33;54.72
70826;SHT31;58446;41.490;22.098;2022-10-28T18:14:31;17.15;55.08
70826;SHT31;58446;41.490;22.098;2022-10-28T18:16:56;16.98;55.81
70826;SHT31;58446;41.490;22.098;2022-10-28T18:19:22;16.93;56.44
70826;SHT31;58446;41.490;22.098;2022-10-28T18:21:48;17.15;55.67
70826;SHT31;58446;41.490;22.098;2022-10-28T18:24:14;17.13;54.52
70826;SHT31;58446;41.490;22.098;2022-10-28T18:26:39;16.78;55.44
70826;SHT31;58446;41.490;22.098;2022-10-28T18:29:07;16.72;56.21
70826;SHT31;58446;41.490;22.098;2022-10-28T18:31:35;16.82;55.87
70826;SHT31;58446;41.490;22.098;2022-10-28T18:34:02;16.93;55.37
70826;SHT31;58446;41.490;22.098;2022-10-28T18:36:30;16.48;55.94
70826;SHT31;58446;41.490;22.098;2022-10-28T18:38:58;16.35;56.45